Jersey Village, Texas
Current Conditions -  °F | °C
As of 1:35 PM on Friday 28 Nov 2014 (Local Time) from KMCJ Reporting Station
Broken Clouds Broken Clouds  
Wind Chill: 70°   Ceiling: 4700
Heat Index: 70°   Visibility: 10mi
Dew Point: 54°   Wind: 13mph
Humidity: 56%   Direction: 140°SE
Pressure: 30.19"   Gusts: 17mph
Location:  29.8565°N, 95.5841°W
Report Text: KMCJ 281935Z AUTO 14011G15KT 010V020 10SM SCT035 BKN047 21/12 A3019 RMK AO1
Loading
Personal Weather Stations






























Interactive Weather Map New forecast layout! Learn more

10-Day Weather Forecast

Advertisements
Track Severe Weather on mobile